Time;durP1;ratioP1;P1;durP2;ratioP2;P2;SDS_P1;SDS_P2;PMS_P1;PMS_P2;Temp;Humidity;BMP_temperature;BMP_pressure;BME280_temperature;BME280_humidity;BME280_pressure;Samples;Min_cycle;Max_cycle;Signal;HPM_P1;HPM_P2
2021/11/11 00:00:39;;;;;;;32.60;19.63;;;10.90;99.90;;;;;;5071923;28;21042;-87
2021/11/11 00:03:06;;;;;;;42.40;22.90;;;10.90;99.90;;;;;;5071665;28;20194;-87
2021/11/11 00:05:33;;;;;;;37.73;21.93;;;10.90;99.90;;;;;;5089612;28;20216;-86
2021/11/11 00:08:01;;;;;;;42.50;22.70;;;10.90;99.90;;;;;;5088850;28;20204;-87
2021/11/11 00:10:29;;;;;;;47.73;24.90;;;10.90;99.90;;;;;;5093181;28;20189;-86
2021/11/11 00:12:56;;;;;;;33.07;20.87;;;10.90;99.90;;;;;;5092393;28;20200;-84
2021/11/11 00:15:24;;;;;;;34.40;20.17;;;10.90;99.90;;;;;;5087143;28;20248;-82
2021/11/11 00:17:52;;;;;;;35.07;20.57;;;10.90;99.90;;;;;;5073015;28;20205;-86
2021/11/11 00:20:21;;;;;;;37.00;20.17;;;10.90;99.90;;;;;;5072474;28;20212;-86
2021/11/11 00:22:49;;;;;;;33.20;20.47;;;10.90;99.90;;;;;;5072201;28;20233;-84
2021/11/11 00:25:18;;;;;;;41.60;20.63;;;10.90;99.90;;;;;;5079011;28;20200;-87
2021/11/11 00:27:46;;;;;;;42.60;21.77;;;10.90;99.90;;;;;;5084068;28;20275;-88
2021/11/11 00:30:15;;;;;;;40.17;21.67;;;10.90;99.90;;;;;;5072445;28;20200;-86
2021/11/11 00:32:42;;;;;;;39.97;22.33;;;10.90;99.90;;;;;;5069386;28;20653;-84
2021/11/11 00:35:13;;;;;;;37.00;21.20;;;10.80;99.90;;;;;;5070862;28;20224;-86
2021/11/11 00:37:40;;;;;;;40.17;20.37;;;10.90;99.90;;;;;;5072244;28;20200;-86
2021/11/11 00:40:08;;;;;;;36.40;19.37;;;10.90;99.90;;;;;;5071117;28;20210;-86
2021/11/11 00:42:35;;;;;;;43.57;22.53;;;10.90;99.90;;;;;;5071879;28;20661;-86
2021/11/11 00:45:02;;;;;;;40.93;19.37;;;10.80;99.90;;;;;;5072468;28;20213;-83
2021/11/11 00:47:29;;;;;;;37.47;19.80;;;10.90;99.90;;;;;;5071452;28;20692;-87
2021/11/11 00:49:56;;;;;;;35.00;21.13;;;10.80;99.90;;;;;;5071676;28;20217;-87
2021/11/11 00:52:24;;;;;;;46.60;21.67;;;10.80;99.90;;;;;;5070080;28;20244;-87
2021/11/11 00:54:52;;;;;;;37.03;20.60;;;10.80;99.90;;;;;;5071755;28;20208;-85
2021/11/11 00:57:19;;;;;;;36.37;20.37;;;10.80;99.90;;;;;;5072431;28;20209;-85
2021/11/11 00:59:46;;;;;;;36.10;20.33;;;10.80;99.90;;;;;;5091022;28;20204;-86
2021/11/11 01:02:13;;;;;;;38.30;21.80;;;10.80;99.90;;;;;;5094668;28;20228;-87
2021/11/11 01:04:40;;;;;;;33.80;19.87;;;10.80;99.90;;;;;;5091932;28;20204;-86
2021/11/11 01:07:09;;;;;;;33.77;18.53;;;10.80;99.90;;;;;;5079392;28;20205;-85
2021/11/11 01:09:38;;;;;;;35.80;20.33;;;10.80;99.90;;;;;;5071387;28;20212;-85
2021/11/11 01:12:06;;;;;;;39.77;20.70;;;10.80;99.90;;;;;;5070968;28;20205;-88
2021/11/11 01:14:33;;;;;;;32.60;19.90;;;10.80;99.90;;;;;;5071478;28;20232;-83
2021/11/11 01:17:00;;;;;;;36.03;20.60;;;10.80;99.90;;;;;;5085072;28;20631;-87
2021/11/11 01:19:27;;;;;;;37.90;21.27;;;10.80;99.90;;;;;;5091718;28;20204;-86
2021/11/11 01:21:54;;;;;;;31.97;18.90;;;10.70;99.90;;;;;;5092161;28;20216;-87
2021/11/11 01:24:21;;;;;;;33.83;19.83;;;10.70;99.90;;;;;;5090187;28;20596;-86
2021/11/11 01:26:49;;;;;;;33.20;20.63;;;10.80;99.90;;;;;;5091163;28;20211;-87
2021/11/11 01:29:16;;;;;;;40.77;20.57;;;10.70;99.90;;;;;;5090503;28;20908;-86
2021/11/11 01:31:43;;;;;;;34.33;20.40;;;10.70;99.90;;;;;;5091468;28;20230;-86
2021/11/11 01:34:10;;;;;;;39.70;21.93;;;10.70;99.90;;;;;;5090932;28;20522;-86
2021/11/11 01:36:37;;;;;;;36.13;20.43;;;10.70;99.90;;;;;;5090822;28;20189;-86
2021/11/11 01:39:04;;;;;;;42.03;22.30;;;10.70;99.90;;;;;;5090272;28;20539;-88
2021/11/11 01:41:32;;;;;;;38.10;21.27;;;10.70;99.90;;;;;;5091141;28;20209;-88
2021/11/11 01:44:00;;;;;;;34.83;21.80;;;10.80;99.90;;;;;;5091603;28;20196;-86
2021/11/11 01:46:27;;;;;;;43.53;23.80;;;10.70;99.90;;;;;;5078116;28;20209;-88
2021/11/11 01:48:54;;;;;;;37.03;22.33;;;10.80;99.90;;;;;;5071879;28;20536;-86
2021/11/11 01:51:23;;;;;;;37.43;21.33;;;10.80;99.90;;;;;;5071047;28;20695;-81
2021/11/11 01:53:51;;;;;;;34.93;21.67;;;10.80;99.90;;;;;;5091391;28;20219;-83
2021/11/11 01:56:20;;;;;;;40.80;23.60;;;10.80;99.90;;;;;;5091003;28;20588;-83
2021/11/11 01:58:47;;;;;;;42.37;24.03;;;10.80;99.90;;;;;;5084309;28;20209;-86
2021/11/11 02:01:16;;;;;;;37.57;22.33;;;10.80;99.90;;;;;;5067321;28;20864;-87
2021/11/11 02:03:43;;;;;;;41.30;22.70;;;10.80;99.90;;;;;;5068857;28;20235;-88
2021/11/11 02:06:10;;;;;;;36.13;22.50;;;10.80;99.90;;;;;;5069101;28;20196;-86
2021/11/11 02:08:37;;;;;;;39.00;23.80;;;10.80;99.90;;;;;;5070739;28;20206;-87
2021/11/11 02:11:03;;;;;;;39.33;21.67;;;10.90;99.90;;;;;;5070796;28;20280;-88
2021/11/11 02:13:31;;;;;;;34.77;22.00;;;10.80;99.90;;;;;;5078557;28;20212;-88
2021/11/11 02:15:58;;;;;;;38.93;22.00;;;10.90;99.90;;;;;;5091169;28;20208;-87
2021/11/11 02:18:26;;;;;;;33.47;21.67;;;10.90;99.90;;;;;;5089890;28;20192;-86
2021/11/11 02:20:55;;;;;;;36.17;21.90;;;10.80;99.90;;;;;;5079480;28;20212;-87
2021/11/11 02:23:22;;;;;;;38.40;20.93;;;10.80;99.90;;;;;;5071002;28;20232;-89
2021/11/11 02:25:49;;;;;;;32.93;20.73;;;10.80;99.90;;;;;;5070782;28;20205;-80
2021/11/11 02:28:18;;;;;;;35.07;21.93;;;10.80;99.90;;;;;;5070445;28;20197;-86
2021/11/11 02:30:48;;;;;;;31.97;20.83;;;10.80;99.90;;;;;;5070968;28;20296;-87
2021/11/11 02:33:18;;;;;;;29.90;19.90;;;10.80;99.90;;;;;;5070559;28;20281;-86
2021/11/11 02:35:45;;;;;;;35.73;23.00;;;10.80;99.90;;;;;;5070268;28;20205;-87
2021/11/11 02:38:14;;;;;;;35.37;21.13;;;10.80;99.90;;;;;;5070624;28;20636;-84
2021/11/11 02:40:41;;;;;;;33.77;21.77;;;10.80;99.90;;;;;;5069307;28;20221;-86
2021/11/11 02:43:09;;;;;;;38.10;22.73;;;10.80;99.90;;;;;;5068408;28;20220;-86
2021/11/11 02:45:39;;;;;;;42.07;23.40;;;10.80;99.90;;;;;;5068258;28;20201;-84
2021/11/11 02:48:07;;;;;;;42.30;24.60;;;10.80;99.90;;;;;;5069816;28;20213;-85
2021/11/11 02:50:35;;;;;;;42.83;24.33;;;10.80;99.90;;;;;;5074287;28;20205;-87
2021/11/11 02:53:03;;;;;;;42.20;24.37;;;10.80;99.90;;;;;;5074274;28;20236;-85
2021/11/11 02:55:32;;;;;;;46.50;23.33;;;10.80;99.90;;;;;;5073363;28;20477;-84
2021/11/11 02:58:00;;;;;;;42.97;22.97;;;10.80;99.90;;;;;;5074422;28;20209;-87
2021/11/11 03:00:29;;;;;;;35.57;20.87;;;10.80;99.90;;;;;;5074324;28;20216;-87
2021/11/11 03:02:56;;;;;;;41.70;23.23;;;10.80;99.90;;;;;;5080150;28;20217;-87
2021/11/11 03:05:25;;;;;;;39.23;22.53;;;10.80;99.90;;;;;;5094123;28;20201;-81
2021/11/11 03:07:53;;;;;;;39.80;22.37;;;10.80;99.90;;;;;;5094096;28;20224;-87
2021/11/11 03:10:23;;;;;;;28.57;19.13;;;10.70;99.90;;;;;;5094153;28;20196;-87
2021/11/11 03:12:53;;;;;;;29.93;19.30;;;10.80;99.90;;;;;;5074866;28;20193;-86
2021/11/11 03:15:20;;;;;;;35.73;19.80;;;10.70;99.90;;;;;;5083394;28;20219;-84
2021/11/11 03:17:49;;;;;;;35.23;20.53;;;10.70;99.90;;;;;;5093550;28;20192;-86
2021/11/11 03:20:16;;;;;;;30.80;20.43;;;10.80;99.90;;;;;;5077429;28;20213;-86
2021/11/11 03:22:43;;;;;;;30.40;19.47;;;10.80;99.90;;;;;;5072759;28;20221;-87
2021/11/11 03:25:12;;;;;;;29.00;18.97;;;10.80;99.90;;;;;;5078465;28;20290;-87
2021/11/11 03:27:39;;;;;;;29.67;18.50;;;10.80;99.90;;;;;;5071499;28;20217;-89
2021/11/11 03:30:11;;;;;;;32.23;19.40;;;10.80;99.90;;;;;;5071786;28;20204;-88
2021/11/11 03:32:39;;;;;;;29.67;19.77;;;10.80;99.90;;;;;;5086220;28;20213;-85
2021/11/11 03:35:07;;;;;;;36.13;22.47;;;10.80;99.90;;;;;;5093357;28;20196;-86
2021/11/11 03:37:36;;;;;;;39.27;21.37;;;10.80;99.90;;;;;;5093435;28;20207;-87
2021/11/11 03:40:07;;;;;;;42.40;23.73;;;10.80;99.90;;;;;;5093567;28;20201;-88
2021/11/11 03:42:34;;;;;;;36.17;22.33;;;10.80;99.90;;;;;;5078369;28;20300;-84
2021/11/11 03:45:01;;;;;;;40.40;23.83;;;10.80;99.90;;;;;;5073052;28;20204;-83
2021/11/11 03:47:29;;;;;;;42.40;25.47;;;10.80;99.90;;;;;;5072760;28;20247;-85
2021/11/11 03:49:56;;;;;;;40.87;24.83;;;10.90;99.90;;;;;;5071988;28;20214;-83
2021/11/11 03:52:23;;;;;;;43.73;23.73;;;10.90;99.90;;;;;;5083298;28;20247;-88
2021/11/11 03:54:52;;;;;;;50.73;26.10;;;10.90;99.90;;;;;;5093467;28;20204;-85
2021/11/11 03:57:19;;;;;;;46.47;26.10;;;10.90;99.90;;;;;;5073078;28;20262;-83
2021/11/11 03:59:46;;;;;;;46.57;25.30;;;10.90;99.90;;;;;;5073478;28;20204;-87
2021/11/11 04:02:13;;;;;;;46.00;24.93;;;10.90;99.90;;;;;;5072283;28;20224;-88
2021/11/11 04:04:42;;;;;;;46.57;26.13;;;10.90;99.90;;;;;;5072629;28;20298;-84
2021/11/11 04:07:09;;;;;;;41.40;25.20;;;10.90;99.90;;;;;;5072702;28;20209;-90
2021/11/11 04:09:36;;;;;;;35.47;22.77;;;10.90;99.90;;;;;;5073057;28;20244;-85
2021/11/11 04:12:03;;;;;;;41.47;24.30;;;10.90;99.90;;;;;;5072919;28;20601;-86
2021/11/11 04:14:31;;;;;;;38.30;24.40;;;10.90;99.90;;;;;;5072931;28;20476;-86
2021/11/11 04:16:58;;;;;;;44.67;23.23;;;10.90;99.90;;;;;;5072297;28;20603;-88
2021/11/11 04:19:25;;;;;;;38.03;23.70;;;10.90;99.90;;;;;;5072704;28;20205;-88
2021/11/11 04:21:53;;;;;;;44.00;24.27;;;10.90;99.90;;;;;;5072744;28;20553;-89
2021/11/11 04:24:20;;;;;;;42.63;25.00;;;10.90;99.90;;;;;;5072311;28;20209;-88
2021/11/11 04:26:53;;;;;;;36.27;22.43;;;10.80;99.90;;;;;;5089208;28;20212;-89
2021/11/11 04:29:22;;;;;;;43.27;25.27;;;10.80;99.90;;;;;;5092925;28;20201;-89
2021/11/11 04:31:54;;;;;;;37.67;23.73;;;10.80;99.90;;;;;;5088362;28;20639;-90
2021/11/11 04:34:21;;;;;;;41.03;24.07;;;10.80;99.90;;;;;;5070702;28;20228;-90
2021/11/11 05:01:54;;;;;;;32.37;21.07;;;10.80;99.90;;;;;;5065798;28;20205;-88
2021/11/11 05:04:21;;;;;;;36.17;24.47;;;10.80;99.90;;;;;;5072159;28;20212;-84
2021/11/11 05:06:49;;;;;;;36.13;23.00;;;10.80;99.90;;;;;;5085746;28;20204;-88
2021/11/11 05:09:16;;;;;;;41.80;24.90;;;10.80;99.90;;;;;;5093688;28;20205;-88
2021/11/11 05:11:45;;;;;;;40.67;25.33;;;10.80;99.90;;;;;;5090021;28;20217;-87
2021/11/11 05:14:11;;;;;;;40.13;25.17;;;10.80;99.90;;;;;;5073423;28;20197;-88
2021/11/11 05:16:38;;;;;;;36.17;23.13;;;10.80;99.90;;;;;;5072732;28;20584;-87
2021/11/11 05:19:05;;;;;;;35.47;22.93;;;10.80;99.90;;;;;;5073751;28;20581;-87
2021/11/11 05:21:32;;;;;;;42.87;26.17;;;10.80;99.90;;;;;;5073089;28;20212;-84
2021/11/11 05:23:58;;;;;;;42.80;24.23;;;10.80;99.90;;;;;;5080842;28;21022;-82
2021/11/11 05:26:25;;;;;;;39.50;25.47;;;10.80;99.90;;;;;;5084300;28;20204;-81
2021/11/11 05:28:53;;;;;;;43.63;26.03;;;10.80;99.90;;;;;;5080981;28;20225;-82
2021/11/11 05:31:20;;;;;;;39.00;25.77;;;10.70;99.90;;;;;;5078171;28;20201;-86
2021/11/11 05:33:47;;;;;;;37.53;23.93;;;10.80;99.90;;;;;;5074867;28;20244;-84
2021/11/11 05:36:14;;;;;;;38.57;23.40;;;10.80;99.90;;;;;;5070311;28;20201;-85
2021/11/11 05:38:41;;;;;;;39.67;24.40;;;10.80;99.90;;;;;;5069692;28;20753;-82
2021/11/11 05:41:08;;;;;;;37.03;23.97;;;10.80;99.90;;;;;;5071928;28;20198;-87
2021/11/11 05:43:35;;;;;;;39.77;25.33;;;10.80;99.90;;;;;;5086788;28;20216;-83
2021/11/11 05:46:03;;;;;;;36.97;24.90;;;10.80;99.90;;;;;;5069490;28;20201;-87
2021/11/11 05:48:30;;;;;;;44.10;25.07;;;10.80;99.90;;;;;;5069428;28;20231;-84
2021/11/11 05:50:57;;;;;;;50.93;28.10;;;10.80;99.90;;;;;;5069096;28;20250;-81
2021/11/11 05:53:24;;;;;;;36.83;24.47;;;10.80;99.90;;;;;;5069802;28;20298;-84
2021/11/11 05:55:51;;;;;;;35.10;22.97;;;10.70;99.90;;;;;;5070895;28;20205;-88
2021/11/11 05:58:18;;;;;;;46.17;27.00;;;10.70;99.90;;;;;;5069788;28;20229;-88
2021/11/11 06:00:45;;;;;;;40.50;25.43;;;10.80;99.90;;;;;;5069766;28;20201;-87
2021/11/11 06:03:14;;;;;;;41.80;25.80;;;10.80;99.90;;;;;;5070647;28;20225;-87
2021/11/11 06:05:41;;;;;;;39.50;26.73;;;10.80;99.90;;;;;;5070849;28;20220;-85
2021/11/11 06:08:08;;;;;;;43.67;26.93;;;10.70;99.90;;;;;;5070900;28;20448;-85
2021/11/11 06:10:35;;;;;;;39.10;25.53;;;10.70;99.90;;;;;;5084511;28;20207;-83
2021/11/11 06:13:02;;;;;;;42.87;26.93;;;10.70;99.90;;;;;;5086919;28;20193;-87
2021/11/11 06:15:28;;;;;;;37.03;23.33;;;10.70;99.90;;;;;;5071388;28;20201;-87
2021/11/11 06:17:58;;;;;;;38.03;24.87;;;10.70;99.90;;;;;;5071557;28;20260;-86
2021/11/11 06:20:31;;;;;;;50.20;27.67;;;10.70;99.90;;;;;;5070870;28;20313;-87
2021/11/11 06:22:59;;;;;;;39.77;25.67;;;10.70;99.90;;;;;;5070217;28;20683;-86
2021/11/11 06:25:27;;;;;;;39.60;26.93;;;10.70;99.90;;;;;;5071821;28;20224;-85
2021/11/11 06:27:54;;;;;;;37.47;24.63;;;10.70;99.90;;;;;;5075807;28;20601;-87
2021/11/11 06:30:20;;;;;;;36.97;25.23;;;10.70;99.90;;;;;;5075890;28;20227;-87
2021/11/11 06:32:47;;;;;;;45.17;28.37;;;10.70;99.90;;;;;;5076299;28;20240;-87
2021/11/11 06:35:14;;;;;;;51.30;28.87;;;10.70;99.90;;;;;;5076155;28;20205;-88
2021/11/11 06:37:42;;;;;;;45.90;27.93;;;10.70;99.90;;;;;;5075742;28;20533;-87
2021/11/11 06:40:10;;;;;;;51.77;28.43;;;10.70;99.90;;;;;;5081519;28;20231;-88
2021/11/11 06:42:37;;;;;;;35.97;24.70;;;10.70;99.90;;;;;;5095450;28;20592;-85
2021/11/11 06:45:10;;;;;;;37.97;24.30;;;10.70;99.90;;;;;;5095055;28;20615;-87
2021/11/11 06:47:37;;;;;;;38.10;24.37;;;10.70;99.90;;;;;;5095488;28;20200;-87
2021/11/11 06:50:05;;;;;;;36.23;24.20;;;10.70;99.90;;;;;;5096086;28;20231;-85
2021/11/11 06:52:32;;;;;;;38.63;26.47;;;10.70;99.90;;;;;;5095108;28;20235;-86
2021/11/11 06:55:00;;;;;;;43.90;28.40;;;10.70;99.90;;;;;;5074512;28;20224;-87
2021/11/11 06:57:27;;;;;;;42.67;27.70;;;10.80;99.90;;;;;;5092710;28;20212;-87
2021/11/11 06:59:54;;;;;;;47.50;27.70;;;10.80;99.90;;;;;;5094960;28;20216;-86
2021/11/11 07:02:23;;;;;;;46.40;27.93;;;10.80;99.90;;;;;;5095133;28;20607;-87
2021/11/11 07:04:50;;;;;;;51.03;28.80;;;10.80;99.90;;;;;;5094874;28;20228;-86
2021/11/11 07:07:17;;;;;;;43.03;27.47;;;10.80;99.90;;;;;;5095200;28;20281;-86
2021/11/11 07:09:44;;;;;;;48.57;31.43;;;10.80;99.90;;;;;;5075348;28;20217;-86
2021/11/11 07:12:12;;;;;;;46.67;29.57;;;10.80;99.90;;;;;;5075008;28;20218;-86
2021/11/11 07:14:42;;;;;;;46.20;28.90;;;10.80;99.90;;;;;;5074550;28;20195;-85
2021/11/11 07:17:09;;;;;;;46.60;30.80;;;10.80;99.90;;;;;;5082463;28;20218;-85
2021/11/11 07:19:36;;;;;;;45.43;28.37;;;10.80;99.90;;;;;;5094960;28;20200;-86
2021/11/11 07:22:04;;;;;;;49.37;31.60;;;10.80;99.90;;;;;;5089787;28;20198;-87
2021/11/11 07:24:31;;;;;;;48.43;29.93;;;10.80;99.90;;;;;;5074077;28;20639;-85
2021/11/11 07:26:58;;;;;;;47.57;30.20;;;10.80;99.90;;;;;;5074009;28;20202;-85
2021/11/11 07:29:27;;;;;;;45.03;28.93;;;10.80;99.90;;;;;;5074527;28;20475;-87
2021/11/11 07:31:54;;;;;;;44.60;28.23;;;10.70;99.90;;;;;;5085331;28;20216;-86
2021/11/11 07:34:22;;;;;;;45.60;29.43;;;10.80;99.90;;;;;;5094633;28;20221;-86
2021/11/11 07:36:49;;;;;;;42.00;26.87;;;10.80;99.90;;;;;;5088370;28;20223;-87
2021/11/11 07:39:17;;;;;;;41.60;26.07;;;10.80;99.90;;;;;;5074458;28;20194;-85
2021/11/11 07:41:45;;;;;;;46.33;28.97;;;10.80;99.90;;;;;;5085479;28;20204;-87
2021/11/11 07:44:12;;;;;;;39.80;26.93;;;10.80;99.90;;;;;;5086843;28;20225;-85
2021/11/11 07:46:42;;;;;;;41.83;26.73;;;10.80;99.90;;;;;;5074030;28;20193;-86
2021/11/11 07:49:10;;;;;;;46.63;27.97;;;10.80;99.90;;;;;;5073902;28;20207;-86
2021/11/11 07:51:37;;;;;;;43.80;27.90;;;10.80;99.90;;;;;;5072375;28;20209;-87
2021/11/11 07:54:04;;;;;;;46.77;27.87;;;10.80;99.90;;;;;;5072717;28;20194;-87
2021/11/11 07:56:31;;;;;;;41.57;26.60;;;10.70;99.90;;;;;;5087866;28;20619;-87
2021/11/11 07:58:58;;;;;;;44.07;27.97;;;10.70;99.90;;;;;;5092094;28;20208;-89
2021/11/11 08:01:25;;;;;;;44.43;26.53;;;10.70;99.90;;;;;;5085183;28;20284;-88
2021/11/11 08:03:53;;;;;;;39.13;25.30;;;10.70;99.90;;;;;;5073695;28;20225;-87
2021/11/11 08:06:20;;;;;;;43.87;28.03;;;10.70;99.90;;;;;;5073431;28;20220;-88
2021/11/11 08:08:48;;;;;;;47.70;29.50;;;10.70;99.90;;;;;;5074089;28;20232;-88
2021/11/11 08:11:15;;;;;;;40.73;26.97;;;10.80;99.90;;;;;;5074108;28;20652;-88
2021/11/11 08:17:58;;;;;;;47.80;29.33;;;10.80;99.90;;;;;;4881747;29;20221;-89
2021/11/11 08:20:27;;;;;;;44.67;29.67;;;10.80;99.90;;;;;;4977502;28;20217;-87
2021/11/11 08:22:54;;;;;;;46.03;29.10;;;10.80;99.90;;;;;;5031966;28;20213;-86
2021/11/11 08:25:22;;;;;;;42.40;27.20;;;10.80;99.90;;;;;;5037300;28;20214;-87
2021/11/11 08:27:50;;;;;;;44.63;29.67;;;10.90;99.90;;;;;;5052070;28;20210;-86
2021/11/11 08:30:19;;;;;;;43.53;28.37;;;10.90;99.90;;;;;;5051275;28;20279;-87
2021/11/11 08:32:48;;;;;;;43.87;27.97;;;11.00;99.90;;;;;;5051265;28;20222;-87
2021/11/11 08:35:18;;;;;;;44.90;29.60;;;11.00;99.90;;;;;;5045484;28;20232;-87
2021/11/11 08:37:46;;;;;;;46.90;28.93;;;11.00;99.90;;;;;;5046858;28;20194;-88
2021/11/11 08:40:14;;;;;;;46.37;31.50;;;11.10;99.90;;;;;;5031810;28;20198;-87
2021/11/11 08:42:42;;;;;;;53.87;32.67;;;11.10;99.90;;;;;;5031505;28;20245;-87
2021/11/11 08:45:10;;;;;;;45.77;28.50;;;11.10;99.90;;;;;;5031554;28;20269;-88
2021/11/11 08:47:37;;;;;;;46.67;30.00;;;11.10;99.90;;;;;;5030186;28;20226;-89
2021/11/11 08:50:05;;;;;;;39.53;26.40;;;11.20;99.90;;;;;;5031281;28;20210;-87
2021/11/11 08:52:32;;;;;;;37.87;26.47;;;11.20;99.90;;;;;;5030616;28;20789;-88
2021/11/11 08:55:01;;;;;;;47.30;32.17;;;11.20;99.90;;;;;;5037203;28;20217;-88
2021/11/11 08:57:28;;;;;;;46.87;29.87;;;11.20;99.90;;;;;;5050551;28;20202;-86
2021/11/11 08:59:55;;;;;;;52.87;31.43;;;11.30;99.90;;;;;;5043568;28;20301;-87
2021/11/11 09:02:23;;;;;;;44.73;28.47;;;11.30;99.90;;;;;;5077653;28;20205;-87
2021/11/11 09:04:50;;;;;;;45.57;28.97;;;11.30;99.90;;;;;;5092927;28;20224;-87
2021/11/11 09:07:17;;;;;;;42.37;31.57;;;11.40;99.90;;;;;;5092751;28;20589;-87
2021/11/11 09:09:44;;;;;;;44.20;27.93;;;11.40;99.90;;;;;;5093156;28;20216;-88
2021/11/11 09:12:12;;;;;;;38.97;27.63;;;11.40;99.90;;;;;;5093396;28;20192;-85
2021/11/11 09:14:39;;;;;;;46.50;27.87;;;11.50;99.90;;;;;;5092623;28;20212;-88
2021/11/11 09:17:06;;;;;;;46.73;30.83;;;11.50;99.90;;;;;;5092444;28;20211;-87
2021/11/11 09:19:33;;;;;;;35.43;24.80;;;11.50;99.90;;;;;;5090867;28;20209;-87
2021/11/11 09:22:00;;;;;;;34.47;25.57;;;11.60;99.90;;;;;;5078789;28;20232;-87
2021/11/11 09:24:27;;;;;;;41.97;28.50;;;11.60;99.90;;;;;;5072431;28;20228;-86
2021/11/11 09:26:54;;;;;;;42.13;26.50;;;11.70;99.90;;;;;;5072048;28;20206;-85
2021/11/11 09:29:23;;;;;;;43.20;27.47;;;11.80;99.90;;;;;;5071699;28;20216;-86
2021/11/11 09:31:50;;;;;;;47.50;30.50;;;11.70;99.90;;;;;;5072221;28;20205;-87
2021/11/11 09:34:17;;;;;;;60.97;38.70;;;11.80;99.90;;;;;;5072385;28;20267;-87
2021/11/11 09:36:44;;;;;;;59.23;36.73;;;11.80;99.90;;;;;;5089881;28;20211;-87
2021/11/11 09:39:11;;;;;;;53.63;34.20;;;11.90;99.90;;;;;;5092535;28;20204;-87
2021/11/11 09:41:40;;;;;;;54.90;32.27;;;11.90;99.90;;;;;;5072922;28;20216;-87
2021/11/11 09:44:07;;;;;;;41.60;28.03;;;12.00;99.90;;;;;;5071958;28;20241;-87
2021/11/11 09:46:35;;;;;;;45.30;28.30;;;12.00;99.90;;;;;;5072358;28;20207;-87
2021/11/11 09:49:03;;;;;;;48.73;30.33;;;12.00;99.90;;;;;;5071829;28;20220;-87
2021/11/11 09:51:30;;;;;;;48.97;32.77;;;12.10;99.90;;;;;;5078442;28;20573;-86
2021/11/11 09:54:02;;;;;;;49.60;30.80;;;12.10;99.90;;;;;;5074814;28;20599;-87
2021/11/11 09:59:15;;;;;;;50.60;30.87;;;12.20;99.90;;;;;;5075145;28;20628;-86
2021/11/11 10:01:45;;;;;;;49.77;31.43;;;12.20;99.90;;;;;;5073646;28;20198;-88
2021/11/11 10:04:13;;;;;;;48.40;30.20;;;12.30;99.90;;;;;;5092163;28;20518;-86
2021/11/11 10:06:40;;;;;;;51.00;31.93;;;12.30;99.90;;;;;;5091336;28;20239;-87
2021/11/11 10:09:13;;;;;;;43.83;29.30;;;12.40;99.90;;;;;;5079936;28;20228;-87
2021/11/11 10:11:49;;;;;;;53.00;33.93;;;12.40;99.90;;;;;;5071364;28;20193;-88
2021/11/11 10:14:17;;;;;;;47.90;31.43;;;12.40;99.90;;;;;;5070365;28;20200;-87
2021/11/11 10:16:48;;;;;;;43.97;29.17;;;12.50;99.90;;;;;;5071089;28;20867;-88
2021/11/11 10:19:15;;;;;;;53.87;32.87;;;12.50;99.90;;;;;;5087462;28;20208;-88
2021/11/11 10:21:47;;;;;;;44.27;29.77;;;12.60;99.90;;;;;;5091895;28;20232;-86
2021/11/11 10:24:32;;;;;;;53.67;32.23;;;12.60;99.90;;;;;;5090948;28;20232;-87
2021/11/11 10:27:06;;;;;;;50.67;33.33;;;12.70;99.90;;;;;;5071871;28;20197;-87
2021/11/11 10:29:38;;;;;;;53.57;30.47;;;12.70;99.90;;;;;;5071855;28;20197;-88
2021/11/11 10:32:10;;;;;;;40.73;27.93;;;12.70;99.90;;;;;;5089931;28;20204;-88
2021/11/11 10:34:46;;;;;;;49.90;31.37;;;12.80;99.90;;;;;;5092108;28;20220;-88
2021/11/11 10:37:13;;;;;;;48.07;29.97;;;12.90;99.90;;;;;;5083814;28;20209;-88
2021/11/11 10:39:41;;;;;;;53.23;32.50;;;12.90;99.90;;;;;;5071425;28;20201;-87
2021/11/11 10:42:16;;;;;;;49.73;31.37;;;13.00;99.90;;;;;;5071567;28;20220;-87
2021/11/11 10:44:44;;;;;;;46.57;30.83;;;13.00;99.90;;;;;;5069770;28;20216;-84
2021/11/11 10:47:19;;;;;;;44.80;29.17;;;13.10;99.90;;;;;;5071580;28;20205;-83
2021/11/11 10:49:45;;;;;;;42.63;28.57;;;13.10;99.90;;;;;;5071985;28;20774;-88
2021/11/11 10:52:33;;;;;;;42.17;28.67;;;13.10;99.90;;;;;;5084641;28;20232;-86
2021/11/11 10:55:06;;;;;;;43.93;28.90;;;13.20;99.90;;;;;;5071837;28;20194;-86
2021/11/11 10:57:40;;;;;;;51.30;31.17;;;13.20;99.90;;;;;;5075159;28;20419;-86
2021/11/11 11:00:31;;;;;;;49.70;32.50;;;13.20;99.90;;;;;;5091875;28;20184;-87
2021/11/11 11:03:13;;;;;;;50.87;32.50;;;13.30;99.90;;;;;;5093946;28;20201;-84
2021/11/11 11:05:52;;;;;;;56.10;31.87;;;13.30;99.90;;;;;;5103335;28;20230;-86
2021/11/11 11:08:21;;;;;;;42.33;28.53;;;13.30;99.90;;;;;;5094007;28;20221;-87
2021/11/11 11:10:51;;;;;;;48.13;31.40;;;13.40;99.90;;;;;;5082686;28;20209;-87
2021/11/11 11:13:21;;;;;;;47.00;29.77;;;13.40;99.90;;;;;;5080127;28;20238;-87
2021/11/11 11:15:52;;;;;;;40.73;27.40;;;13.50;99.90;;;;;;5096859;28;20199;-87
2021/11/11 11:18:24;;;;;;;45.47;29.03;;;13.40;99.90;;;;;;5093708;28;20209;-87
2021/11/11 11:20:56;;;;;;;45.60;29.33;;;13.50;99.90;;;;;;5092881;28;20185;-89
2021/11/11 11:23:31;;;;;;;52.80;32.70;;;13.50;99.90;;;;;;5070472;28;20217;-89
2021/11/11 11:26:05;;;;;;;41.57;27.60;;;13.50;99.90;;;;;;5070557;28;20228;-87
2021/11/11 11:28:36;;;;;;;46.03;29.00;;;13.50;99.90;;;;;;5070477;28;20998;-88
2021/11/11 11:31:06;;;;;;;45.77;28.77;;;13.50;99.90;;;;;;5070568;28;20201;-88
2021/11/11 11:33:45;;;;;;;48.67;31.83;;;13.50;99.90;;;;;;5070987;28;20216;-90
2021/11/11 11:36:16;;;;;;;45.77;29.17;;;13.50;99.90;;;;;;5072827;28;20266;-89
2021/11/11 11:38:51;;;;;;;41.30;28.87;;;13.40;99.90;;;;;;5073969;28;20254;-89
2021/11/11 11:41:32;;;;;;;38.80;27.60;;;13.40;99.90;;;;;;5078860;28;20661;-89
2021/11/11 11:44:18;;;;;;;44.53;29.97;;;13.50;99.90;;;;;;5094976;28;20185;-90
2021/11/11 11:46:58;;;;;;;42.47;27.97;;;13.50;99.90;;;;;;5095042;28;20196;-88
2021/11/11 11:49:26;;;;;;;45.63;30.13;;;13.50;99.90;;;;;;5076938;28;20205;-86
2021/11/11 11:51:53;;;;;;;44.37;30.60;;;13.50;99.90;;;;;;5072664;28;20241;-85
2021/11/11 11:54:26;;;;;;;47.23;31.10;;;13.50;99.90;;;;;;5072696;28;20301;-85
2021/11/11 11:56:56;;;;;;;44.37;30.57;;;13.60;99.90;;;;;;5072396;28;20232;-85
2021/11/11 11:59:27;;;;;;;40.47;27.90;;;13.70;99.90;;;;;;5073805;28;20208;-81
2021/11/11 12:02:07;;;;;;;44.70;30.83;;;13.70;99.90;;;;;;5072256;28;20201;-84
2021/11/11 12:10:35;;;;;;;42.97;30.60;;;13.90;99.90;;;;;;5092716;28;20204;-84
2021/11/11 12:39:34;;;;;;;48.63;32.17;;;14.00;99.90;;;;;;5071621;28;20250;-86
2021/11/11 12:42:05;;;;;;;41.00;28.30;;;14.00;99.90;;;;;;5071819;28;20201;-84
2021/11/11 12:44:32;;;;;;;44.77;28.73;;;14.00;99.90;;;;;;5072083;28;20280;-82
2021/11/11 12:47:00;;;;;;;45.97;29.87;;;14.00;99.90;;;;;;5071990;28;20217;-83
2021/11/11 12:49:29;;;;;;;41.80;29.57;;;13.90;99.90;;;;;;5072097;28;20206;-83
2021/11/11 12:52:23;;;;;;;44.40;28.93;;;13.90;99.90;;;;;;5071965;28;20242;-85
2021/11/11 12:54:52;;;;;;;34.80;25.23;;;13.90;99.90;;;;;;5072475;28;20806;-84
2021/11/11 12:57:21;;;;;;;49.63;31.97;;;13.90;99.90;;;;;;5072262;28;20216;-84
2021/11/11 12:59:49;;;;;;;41.50;29.20;;;13.90;99.90;;;;;;5072504;28;20224;-85
2021/11/11 13:02:17;;;;;;;43.83;29.90;;;13.90;99.90;;;;;;5072450;28;20204;-84
2021/11/11 13:04:54;;;;;;;43.30;30.47;;;13.90;99.90;;;;;;5084032;28;20225;-84
2021/11/11 13:07:30;;;;;;;41.40;29.83;;;13.90;99.90;;;;;;5091350;28;20196;-84
2021/11/11 13:10:19;;;;;;;42.80;30.03;;;13.90;99.90;;;;;;5085823;28;20676;-86
2021/11/11 13:13:12;;;;;;;41.80;31.17;;;13.90;99.90;;;;;;5071826;28;20760;-86
2021/11/11 13:15:41;;;;;;;41.47;30.47;;;13.80;99.90;;;;;;5071899;28;20206;-86
2021/11/11 13:18:09;;;;;;;49.43;33.57;;;13.80;99.90;;;;;;5071702;28;20236;-86
2021/11/11 13:20:43;;;;;;;41.30;30.53;;;13.70;99.90;;;;;;5071491;28;20208;-85
2021/11/11 13:23:21;;;;;;;40.23;29.73;;;13.70;99.90;;;;;;5071663;28;20266;-82
2021/11/11 13:54:28;;;;;;;42.00;30.17;;;13.40;99.90;;;;;;5090866;28;20195;-85
2021/11/11 16:21:26;;;;;;;52.50;32.97;;;12.40;99.90;;;;;;5073179;28;20184;-84
2021/11/11 16:24:07;;;;;;;58.47;36.80;;;12.30;99.90;;;;;;5077935;28;20212;-86
2021/11/11 16:26:35;;;;;;;58.43;37.40;;;12.40;99.90;;;;;;5094916;28;20277;-88
2021/11/11 16:29:03;;;;;;;72.10;40.80;;;12.40;99.90;;;;;;5095154;28;20196;-89
2021/11/11 16:31:31;;;;;;;68.10;39.53;;;12.30;99.90;;;;;;5092790;28;20204;-87
2021/11/11 16:34:00;;;;;;;66.63;39.60;;;12.30;99.90;;;;;;5074776;28;20225;-90